sensor_id;sensor_type;location;lat;lon;timestamp;temperature;humidity
37380;DHT22;23252;-33.992;18.480;2022-12-18T00:01:21;19.50;99.90
37380;DHT22;23252;-33.992;18.480;2022-12-18T00:03:48;19.50;99.90
37380;DHT22;23252;-33.992;18.480;2022-12-18T00:06:16;19.40;99.90
37380;DHT22;23252;-33.992;18.480;2022-12-18T00:08:44;19.40;99.90
37380;DHT22;23252;-33.992;18.480;2022-12-18T00:11:22;19.40;99.90
37380;DHT22;23252;-33.992;18.480;2022-12-18T00:13:50;19.30;99.90
37380;DHT22;23252;-33.992;18.480;2022-12-18T00:16:19;19.40;99.90
37380;DHT22;23252;-33.992;18.480;2022-12-18T00:18:47;19.30;99.90
37380;DHT22;23252;-33.992;18.480;2022-12-18T00:21:15;19.30;99.90
37380;DHT22;23252;-33.992;18.480;2022-12-18T00:23:43;19.30;99.90
37380;DHT22;23252;-33.992;18.480;2022-12-18T00:26:39;19.30;99.90
37380;DHT22;23252;-33.992;18.480;2022-12-18T00:29:12;19.30;99.90
37380;DHT22;23252;-33.992;18.480;2022-12-18T00:31:42;19.30;99.90
37380;DHT22;23252;-33.992;18.480;2022-12-18T00:34:11;19.30;99.90
37380;DHT22;23252;-33.992;18.480;2022-12-18T00:36:38;19.20;99.90
37380;DHT22;23252;-33.992;18.480;2022-12-18T00:39:05;19.20;99.90
37380;DHT22;23252;-33.992;18.480;2022-12-18T00:41:32;19.20;99.90
37380;DHT22;23252;-33.992;18.480;2022-12-18T00:44:18;19.20;99.90
37380;DHT22;23252;-33.992;18.480;2022-12-18T00:46:46;19.20;99.90
37380;DHT22;23252;-33.992;18.480;2022-12-18T00:49:13;19.20;99.90
37380;DHT22;23252;-33.992;18.480;2022-12-18T00:51:40;19.20;99.90
37380;DHT22;23252;-33.992;18.480;2022-12-18T00:54:07;19.20;99.90
37380;DHT22;23252;-33.992;18.480;2022-12-18T00:56:36;19.20;99.90
37380;DHT22;23252;-33.992;18.480;2022-12-18T00:59:03;19.20;99.90
37380;DHT22;23252;-33.992;18.480;2022-12-18T01:01:30;19.20;99.90
37380;DHT22;23252;-33.992;18.480;2022-12-18T01:04:01;19.20;99.90
37380;DHT22;23252;-33.992;18.480;2022-12-18T01:06:28;19.20;99.90
37380;DHT22;23252;-33.992;18.480;2022-12-18T01:08:55;19.10;99.90
37380;DHT22;23252;-33.992;18.480;2022-12-18T01:11:22;19.10;99.90
37380;DHT22;23252;-33.992;18.480;2022-12-18T01:13:49;19.00;99.90
37380;DHT22;23252;-33.992;18.480;2022-12-18T01:16:17;19.00;99.90
37380;DHT22;23252;-33.992;18.480;2022-12-18T01:18:44;19.00;99.90
37380;DHT22;23252;-33.992;18.480;2022-12-18T01:21:15;19.00;99.90
37380;DHT22;23252;-33.992;18.480;2022-12-18T01:23:45;19.00;99.90
37380;DHT22;23252;-33.992;18.480;2022-12-18T01:26:14;19.00;99.90
37380;DHT22;23252;-33.992;18.480;2022-12-18T01:28:41;19.00;99.90
37380;DHT22;23252;-33.992;18.480;2022-12-18T01:31:22;19.00;99.90
37380;DHT22;23252;-33.992;18.480;2022-12-18T01:33:50;19.00;99.90
37380;DHT22;23252;-33.992;18.480;2022-12-18T01:36:28;19.00;99.90
37380;DHT22;23252;-33.992;18.480;2022-12-18T01:38:56;19.00;99.90
37380;DHT22;23252;-33.992;18.480;2022-12-18T01:41:25;19.10;99.90
37380;DHT22;23252;-33.992;18.480;2022-12-18T01:43:55;19.10;99.90
37380;DHT22;23252;-33.992;18.480;2022-12-18T01:46:26;19.10;99.90
37380;DHT22;23252;-33.992;18.480;2022-12-18T01:48:59;19.10;99.90
37380;DHT22;23252;-33.992;18.480;2022-12-18T01:51:27;19.10;99.90
37380;DHT22;23252;-33.992;18.480;2022-12-18T01:53:55;19.10;99.90
37380;DHT22;23252;-33.992;18.480;2022-12-18T01:56:23;19.20;99.90
37380;DHT22;23252;-33.992;18.480;2022-12-18T01:59:09;19.20;99.90
37380;DHT22;23252;-33.992;18.480;2022-12-18T02:01:38;19.20;99.90
37380;DHT22;23252;-33.992;18.480;2022-12-18T02:04:23;19.20;99.90
37380;DHT22;23252;-33.992;18.480;2022-12-18T02:10:06;19.30;99.90
37380;DHT22;23252;-33.992;18.480;2022-12-18T02:12:48;19.30;99.90
37380;DHT22;23252;-33.992;18.480;2022-12-18T02:15:23;19.30;99.90
37380;DHT22;23252;-33.992;18.480;2022-12-18T02:18:02;19.30;99.90
37380;DHT22;23252;-33.992;18.480;2022-12-18T02:20:32;19.30;99.90
37380;DHT22;23252;-33.992;18.480;2022-12-18T02:28:41;19.20;99.90
37380;DHT22;23252;-33.992;18.480;2022-12-18T02:31:13;19.20;99.90
37380;DHT22;23252;-33.992;18.480;2022-12-18T02:33:41;19.20;99.90
37380;DHT22;23252;-33.992;18.480;2022-12-18T02:36:09;19.20;99.90
37380;DHT22;23252;-33.992;18.480;2022-12-18T02:38:37;19.20;99.90
37380;DHT22;23252;-33.992;18.480;2022-12-18T02:41:04;19.10;99.90
37380;DHT22;23252;-33.992;18.480;2022-12-18T02:43:31;19.10;99.90
37380;DHT22;23252;-33.992;18.480;2022-12-18T02:45:59;19.10;99.90
37380;DHT22;23252;-33.992;18.480;2022-12-18T02:48:31;19.10;99.90
37380;DHT22;23252;-33.992;18.480;2022-12-18T02:51:14;19.10;99.90
37380;DHT22;23252;-33.992;18.480;2022-12-18T02:53:51;19.10;99.90
37380;DHT22;23252;-33.992;18.480;2022-12-18T02:56:24;19.10;99.90
37380;DHT22;23252;-33.992;18.480;2022-12-18T03:02:17;19.10;99.90
37380;DHT22;23252;-33.992;18.480;2022-12-18T03:07:43;19.20;99.90
37380;DHT22;23252;-33.992;18.480;2022-12-18T03:10:14;19.20;99.90
37380;DHT22;23252;-33.992;18.480;2022-12-18T03:13:06;19.20;99.90
37380;DHT22;23252;-33.992;18.480;2022-12-18T03:15:47;19.20;99.90
37380;DHT22;23252;-33.992;18.480;2022-12-18T03:18:42;19.30;99.90
37380;DHT22;23252;-33.992;18.480;2022-12-18T03:21:11;19.30;99.90
37380;DHT22;23252;-33.992;18.480;2022-12-18T03:23:44;19.20;99.90
37380;DHT22;23252;-33.992;18.480;2022-12-18T03:26:17;19.20;99.90
37380;DHT22;23252;-33.992;18.480;2022-12-18T03:28:59;19.10;99.90
37380;DHT22;23252;-33.992;18.480;2022-12-18T03:31:29;19.10;99.90
37380;DHT22;23252;-33.992;18.480;2022-12-18T03:34:09;19.10;99.90
37380;DHT22;23252;-33.992;18.480;2022-12-18T03:36:35;19.10;99.90
37380;DHT22;23252;-33.992;18.480;2022-12-18T03:39:02;19.10;99.90
37380;DHT22;23252;-33.992;18.480;2022-12-18T03:41:37;19.10;99.90
37380;DHT22;23252;-33.992;18.480;2022-12-18T03:49:46;19.10;99.90
37380;DHT22;23252;-33.992;18.480;2022-12-18T03:52:51;19.10;99.90
37380;DHT22;23252;-33.992;18.480;2022-12-18T03:55:16;19.10;99.90
37380;DHT22;23252;-33.992;18.480;2022-12-18T03:57:44;19.10;99.90
37380;DHT22;23252;-33.992;18.480;2022-12-18T04:00:14;19.10;99.90
37380;DHT22;23252;-33.992;18.480;2022-12-18T04:02:45;19.10;99.90
37380;DHT22;23252;-33.992;18.480;2022-12-18T04:05:12;19.20;99.90
37380;DHT22;23252;-33.992;18.480;2022-12-18T04:07:40;19.20;99.90
37380;DHT22;23252;-33.992;18.480;2022-12-18T04:10:13;19.20;99.90
37380;DHT22;23252;-33.992;18.480;2022-12-18T04:12:40;19.20;99.90
37380;DHT22;23252;-33.992;18.480;2022-12-18T04:15:07;19.20;99.90
37380;DHT22;23252;-33.992;18.480;2022-12-18T04:17:34;19.30;99.90
37380;DHT22;23252;-33.992;18.480;2022-12-18T04:20:01;19.30;99.90
37380;DHT22;23252;-33.992;18.480;2022-12-18T04:22:27;19.30;99.90
37380;DHT22;23252;-33.992;18.480;2022-12-18T04:24:54;19.30;99.90
37380;DHT22;23252;-33.992;18.480;2022-12-18T04:27:20;19.40;99.90
37380;DHT22;23252;-33.992;18.480;2022-12-18T04:29:47;19.40;99.90
37380;DHT22;23252;-33.992;18.480;2022-12-18T04:32:14;19.50;99.90
37380;DHT22;23252;-33.992;18.480;2022-12-18T04:34:40;19.50;99.90
37380;DHT22;23252;-33.992;18.480;2022-12-18T04:37:07;19.50;99.90
37380;DHT22;23252;-33.992;18.480;2022-12-18T04:39:34;19.60;99.90
37380;DHT22;23252;-33.992;18.480;2022-12-18T04:42:01;19.60;99.90
37380;DHT22;23252;-33.992;18.480;2022-12-18T04:44:28;19.70;99.90
37380;DHT22;23252;-33.992;18.480;2022-12-18T04:46:54;19.60;99.90
37380;DHT22;23252;-33.992;18.480;2022-12-18T04:49:21;19.70;99.90
37380;DHT22;23252;-33.992;18.480;2022-12-18T04:51:48;19.70;99.90
37380;DHT22;23252;-33.992;18.480;2022-12-18T04:54:18;19.70;99.90
37380;DHT22;23252;-33.992;18.480;2022-12-18T04:56:45;19.80;99.90
37380;DHT22;23252;-33.992;18.480;2022-12-18T04:59:12;19.80;99.90
37380;DHT22;23252;-33.992;18.480;2022-12-18T05:01:39;19.80;99.90
37380;DHT22;23252;-33.992;18.480;2022-12-18T05:04:05;19.90;99.90
37380;DHT22;23252;-33.992;18.480;2022-12-18T05:06:35;19.90;99.90
37380;DHT22;23252;-33.992;18.480;2022-12-18T05:09:01;19.90;99.90
37380;DHT22;23252;-33.992;18.480;2022-12-18T05:11:28;20.00;99.90
37380;DHT22;23252;-33.992;18.480;2022-12-18T05:13:54;20.00;99.90
37380;DHT22;23252;-33.992;18.480;2022-12-18T05:16:21;20.10;99.90
37380;DHT22;23252;-33.992;18.480;2022-12-18T05:18:47;20.00;99.90
37380;DHT22;23252;-33.992;18.480;2022-12-18T05:21:14;20.10;99.90
37380;DHT22;23252;-33.992;18.480;2022-12-18T05:23:40;20.10;99.90
37380;DHT22;23252;-33.992;18.480;2022-12-18T05:26:07;20.20;99.90
37380;DHT22;23252;-33.992;18.480;2022-12-18T05:28:35;20.10;99.90
37380;DHT22;23252;-33.992;18.480;2022-12-18T05:31:03;20.20;99.90
37380;DHT22;23252;-33.992;18.480;2022-12-18T05:33:32;20.20;99.90
37380;DHT22;23252;-33.992;18.480;2022-12-18T05:36:01;20.20;99.90
37380;DHT22;23252;-33.992;18.480;2022-12-18T05:38:29;20.20;99.90
37380;DHT22;23252;-33.992;18.480;2022-12-18T05:40:56;20.30;99.90
37380;DHT22;23252;-33.992;18.480;2022-12-18T05:43:26;20.30;99.90
37380;DHT22;23252;-33.992;18.480;2022-12-18T05:45:53;20.30;99.90
37380;DHT22;23252;-33.992;18.480;2022-12-18T05:48:20;20.40;99.90
37380;DHT22;23252;-33.992;18.480;2022-12-18T05:50:47;20.50;99.90
37380;DHT22;23252;-33.992;18.480;2022-12-18T05:53:15;20.50;99.90
37380;DHT22;23252;-33.992;18.480;2022-12-18T05:55:45;20.50;99.90
37380;DHT22;23252;-33.992;18.480;2022-12-18T05:58:12;20.60;99.90
37380;DHT22;23252;-33.992;18.480;2022-12-18T06:00:40;20.60;99.90
37380;DHT22;23252;-33.992;18.480;2022-12-18T06:03:08;20.60;99.90
37380;DHT22;23252;-33.992;18.480;2022-12-18T06:05:41;20.70;99.90
37380;DHT22;23252;-33.992;18.480;2022-12-18T06:08:08;20.70;99.90
37380;DHT22;23252;-33.992;18.480;2022-12-18T06:10:35;20.80;99.90
37380;DHT22;23252;-33.992;18.480;2022-12-18T06:13:01;20.80;99.90
37380;DHT22;23252;-33.992;18.480;2022-12-18T06:15:28;20.90;99.90
37380;DHT22;23252;-33.992;18.480;2022-12-18T06:17:55;20.90;99.90
37380;DHT22;23252;-33.992;18.480;2022-12-18T06:20:23;20.80;99.90
37380;DHT22;23252;-33.992;18.480;2022-12-18T06:22:50;20.90;99.90
37380;DHT22;23252;-33.992;18.480;2022-12-18T06:25:17;21.00;99.90
37380;DHT22;23252;-33.992;18.480;2022-12-18T06:27:43;21.10;99.90
37380;DHT22;23252;-33.992;18.480;2022-12-18T06:30:10;21.10;99.90
37380;DHT22;23252;-33.992;18.480;2022-12-18T06:32:37;21.00;99.90
37380;DHT22;23252;-33.992;18.480;2022-12-18T06:35:03;21.00;99.90
37380;DHT22;23252;-33.992;18.480;2022-12-18T06:37:31;21.00;99.90
37380;DHT22;23252;-33.992;18.480;2022-12-18T06:39:57;21.20;99.90
37380;DHT22;23252;-33.992;18.480;2022-12-18T06:42:24;21.30;99.90
37380;DHT22;23252;-33.992;18.480;2022-12-18T06:44:54;21.30;99.90
37380;DHT22;23252;-33.992;18.480;2022-12-18T06:47:21;21.30;99.90
37380;DHT22;23252;-33.992;18.480;2022-12-18T06:49:47;21.30;99.90
37380;DHT22;23252;-33.992;18.480;2022-12-18T06:52:14;21.40;99.90
37380;DHT22;23252;-33.992;18.480;2022-12-18T06:54:40;21.40;99.90
37380;DHT22;23252;-33.992;18.480;2022-12-18T06:57:07;21.40;99.90
37380;DHT22;23252;-33.992;18.480;2022-12-18T06:59:34;21.50;99.90
37380;DHT22;23252;-33.992;18.480;2022-12-18T07:02:00;21.60;99.90
37380;DHT22;23252;-33.992;18.480;2022-12-18T07:04:30;21.50;99.90
37380;DHT22;23252;-33.992;18.480;2022-12-18T07:06:57;21.50;99.90
37380;DHT22;23252;-33.992;18.480;2022-12-18T07:09:24;21.60;99.90
37380;DHT22;23252;-33.992;18.480;2022-12-18T07:11:50;21.60;99.90
37380;DHT22;23252;-33.992;18.480;2022-12-18T07:14:17;21.70;99.90
37380;DHT22;23252;-33.992;18.480;2022-12-18T07:16:43;21.80;99.90
37380;DHT22;23252;-33.992;18.480;2022-12-18T07:19:10;21.80;99.90
37380;DHT22;23252;-33.992;18.480;2022-12-18T07:21:36;21.90;99.90
37380;DHT22;23252;-33.992;18.480;2022-12-18T07:24:03;21.90;99.90
37380;DHT22;23252;-33.992;18.480;2022-12-18T07:26:30;21.90;99.90
37380;DHT22;23252;-33.992;18.480;2022-12-18T07:28:57;22.00;99.90
37380;DHT22;23252;-33.992;18.480;2022-12-18T07:31:24;22.10;99.90
37380;DHT22;23252;-33.992;18.480;2022-12-18T07:33:51;22.20;99.90
37380;DHT22;23252;-33.992;18.480;2022-12-18T07:36:18;22.20;99.90
37380;DHT22;23252;-33.992;18.480;2022-12-18T07:38:47;22.30;99.90
37380;DHT22;23252;-33.992;18.480;2022-12-18T07:41:14;22.40;99.90
37380;DHT22;23252;-33.992;18.480;2022-12-18T07:43:41;22.50;99.90
37380;DHT22;23252;-33.992;18.480;2022-12-18T07:46:10;22.60;99.90
37380;DHT22;23252;-33.992;18.480;2022-12-18T07:48:37;22.60;99.90
37380;DHT22;23252;-33.992;18.480;2022-12-18T07:51:05;22.60;99.90
37380;DHT22;23252;-33.992;18.480;2022-12-18T07:53:33;22.70;99.90
37380;DHT22;23252;-33.992;18.480;2022-12-18T07:56:03;22.70;99.90
37380;DHT22;23252;-33.992;18.480;2022-12-18T07:58:31;22.70;99.90
37380;DHT22;23252;-33.992;18.480;2022-12-18T08:01:05;22.70;99.90
37380;DHT22;23252;-33.992;18.480;2022-12-18T08:03:32;22.70;99.90
37380;DHT22;23252;-33.992;18.480;2022-12-18T08:06:09;22.80;99.90
37380;DHT22;23252;-33.992;18.480;2022-12-18T08:08:36;22.90;99.90
37380;DHT22;23252;-33.992;18.480;2022-12-18T08:11:03;22.90;99.90
37380;DHT22;23252;-33.992;18.480;2022-12-18T08:13:29;23.00;99.90
37380;DHT22;23252;-33.992;18.480;2022-12-18T08:16:04;23.00;99.90
37380;DHT22;23252;-33.992;18.480;2022-12-18T08:18:35;23.10;99.90
37380;DHT22;23252;-33.992;18.480;2022-12-18T08:21:10;23.10;99.90
37380;DHT22;23252;-33.992;18.480;2022-12-18T08:23:37;23.20;99.90
37380;DHT22;23252;-33.992;18.480;2022-12-18T08:26:03;23.20;99.90
37380;DHT22;23252;-33.992;18.480;2022-12-18T08:28:30;23.20;99.90
37380;DHT22;23252;-33.992;18.480;2022-12-18T08:30:56;23.20;99.90
37380;DHT22;23252;-33.992;18.480;2022-12-18T08:33:23;23.10;99.90
37380;DHT22;23252;-33.992;18.480;2022-12-18T08:35:49;23.10;99.90
37380;DHT22;23252;-33.992;18.480;2022-12-18T08:38:18;23.10;99.90
37380;DHT22;23252;-33.992;18.480;2022-12-18T08:40:45;23.10;99.90
37380;DHT22;23252;-33.992;18.480;2022-12-18T08:43:12;23.10;99.90
37380;DHT22;23252;-33.992;18.480;2022-12-18T08:45:57;23.20;99.90
37380;DHT22;23252;-33.992;18.480;2022-12-18T08:48:23;23.30;99.90
37380;DHT22;23252;-33.992;18.480;2022-12-18T08:50:57;23.30;99.90
37380;DHT22;23252;-33.992;18.480;2022-12-18T08:53:27;23.40;99.90
37380;DHT22;23252;-33.992;18.480;2022-12-18T08:55:55;23.50;99.90
37380;DHT22;23252;-33.992;18.480;2022-12-18T08:58:22;23.60;99.90
37380;DHT22;23252;-33.992;18.480;2022-12-18T09:00:49;23.60;99.90
37380;DHT22;23252;-33.992;18.480;2022-12-18T09:03:17;23.70;99.90
37380;DHT22;23252;-33.992;18.480;2022-12-18T09:05:46;23.80;99.90
37380;DHT22;23252;-33.992;18.480;2022-12-18T09:08:12;23.80;99.90
37380;DHT22;23252;-33.992;18.480;2022-12-18T09:10:44;23.90;99.90
37380;DHT22;23252;-33.992;18.480;2022-12-18T09:13:11;23.90;99.90
37380;DHT22;23252;-33.992;18.480;2022-12-18T09:15:46;23.90;99.90
37380;DHT22;23252;-33.992;18.480;2022-12-18T09:18:14;23.80;99.90
37380;DHT22;23252;-33.992;18.480;2022-12-18T09:20:41;23.80;99.90
37380;DHT22;23252;-33.992;18.480;2022-12-18T09:23:08;23.80;99.90
37380;DHT22;23252;-33.992;18.480;2022-12-18T09:25:35;24.00;99.90
37380;DHT22;23252;-33.992;18.480;2022-12-18T09:28:02;23.90;99.90
37380;DHT22;23252;-33.992;18.480;2022-12-18T09:30:29;24.00;99.90
37380;DHT22;23252;-33.992;18.480;2022-12-18T09:32:56;24.10;99.90
37380;DHT22;23252;-33.992;18.480;2022-12-18T09:35:23;24.10;99.90
37380;DHT22;23252;-33.992;18.480;2022-12-18T09:37:49;24.20;99.90
37380;DHT22;23252;-33.992;18.480;2022-12-18T09:40:21;24.10;99.90
37380;DHT22;23252;-33.992;18.480;2022-12-18T09:42:56;24.10;99.90
37380;DHT22;23252;-33.992;18.480;2022-12-18T09:45:24;24.10;99.90
37380;DHT22;23252;-33.992;18.480;2022-12-18T09:47:52;24.20;99.90
37380;DHT22;23252;-33.992;18.480;2022-12-18T09:50:27;24.20;99.90
37380;DHT22;23252;-33.992;18.480;2022-12-18T09:52:59;24.20;99.90
37380;DHT22;23252;-33.992;18.480;2022-12-18T09:55:43;24.10;99.90
37380;DHT22;23252;-33.992;18.480;2022-12-18T10:00:56;24.10;99.90
37380;DHT22;23252;-33.992;18.480;2022-12-18T10:03:23;24.20;99.90
37380;DHT22;23252;-33.992;18.480;2022-12-18T10:06:15;24.20;99.90
37380;DHT22;23252;-33.992;18.480;2022-12-18T10:27:42;24.70;99.90
37380;DHT22;23252;-33.992;18.480;2022-12-18T10:30:14;24.80;99.90
37380;DHT22;23252;-33.992;18.480;2022-12-18T10:32:41;24.80;99.90
37380;DHT22;23252;-33.992;18.480;2022-12-18T10:35:25;24.60;99.90
37380;DHT22;23252;-33.992;18.480;2022-12-18T10:46:14;24.30;99.90
37380;DHT22;23252;-33.992;18.480;2022-12-18T10:48:49;24.40;99.90
37380;DHT22;23252;-33.992;18.480;2022-12-18T10:51:28;24.60;99.90
37380;DHT22;23252;-33.992;18.480;2022-12-18T10:56:29;24.90;99.90
37380;DHT22;23252;-33.992;18.480;2022-12-18T10:59:02;24.90;99.90
37380;DHT22;23252;-33.992;18.480;2022-12-18T11:01:51;24.90;99.90
37380;DHT22;23252;-33.992;18.480;2022-12-18T11:04:23;24.90;99.90
37380;DHT22;23252;-33.992;18.480;2022-12-18T11:07:02;25.00;99.90
37380;DHT22;23252;-33.992;18.480;2022-12-18T11:09:32;25.10;99.90
37380;DHT22;23252;-33.992;18.480;2022-12-18T11:12:04;25.10;99.90
37380;DHT22;23252;-33.992;18.480;2022-12-18T11:14:51;24.90;99.90
37380;DHT22;23252;-33.992;18.480;2022-12-18T11:19:57;25.20;99.90
37380;DHT22;23252;-33.992;18.480;2022-12-18T11:22:32;25.40;99.90
37380;DHT22;23252;-33.992;18.480;2022-12-18T11:25:04;25.30;99.90
37380;DHT22;23252;-33.992;18.480;2022-12-18T11:27:32;25.20;99.90
37380;DHT22;23252;-33.992;18.480;2022-12-18T11:30:13;25.20;99.90
37380;DHT22;23252;-33.992;18.480;2022-12-18T11:38:32;25.00;99.90
37380;DHT22;23252;-33.992;18.480;2022-12-18T11:41:09;25.10;99.90
37380;DHT22;23252;-33.992;18.480;2022-12-18T11:43:59;25.40;99.90
37380;DHT22;23252;-33.992;18.480;2022-12-18T11:46:37;25.40;99.90
37380;DHT22;23252;-33.992;18.480;2022-12-18T11:49:22;25.60;99.90
37380;DHT22;23252;-33.992;18.480;2022-12-18T11:52:03;25.90;99.90
37380;DHT22;23252;-33.992;18.480;2022-12-18T11:54:31;26.00;99.90
37380;DHT22;23252;-33.992;18.480;2022-12-18T12:08:15;25.90;99.90
37380;DHT22;23252;-33.992;18.480;2022-12-18T12:11:05;26.10;99.90
37380;DHT22;23252;-33.992;18.480;2022-12-18T12:19:02;26.30;99.90
37380;DHT22;23252;-33.992;18.480;2022-12-18T12:27:20;26.90;99.90
37380;DHT22;23252;-33.992;18.480;2022-12-18T12:30:07;27.50;99.90
37380;DHT22;23252;-33.992;18.480;2022-12-18T12:40:37;27.80;99.90
37380;DHT22;23252;-33.992;18.480;2022-12-18T12:46:04;28.60;99.90
37380;DHT22;23252;-33.992;18.480;2022-12-18T12:48:52;28.70;99.90
37380;DHT22;23252;-33.992;18.480;2022-12-18T12:53:57;28.60;99.90
37380;DHT22;23252;-33.992;18.480;2022-12-18T12:56:32;28.40;99.90
37380;DHT22;23252;-33.992;18.480;2022-12-18T13:06:59;28.90;99.90
37380;DHT22;23252;-33.992;18.480;2022-12-18T13:09:33;28.90;99.90
37380;DHT22;23252;-33.992;18.480;2022-12-18T13:12:09;29.10;99.90
37380;DHT22;23252;-33.992;18.480;2022-12-18T13:15:21;29.10;99.90
37380;DHT22;23252;-33.992;18.480;2022-12-18T13:17:49;29.10;99.90
37380;DHT22;23252;-33.992;18.480;2022-12-18T13:20:16;29.00;99.90
37380;DHT22;23252;-33.992;18.480;2022-12-18T13:22:48;29.00;99.90
37380;DHT22;23252;-33.992;18.480;2022-12-18T13:25:35;28.90;99.90
37380;DHT22;23252;-33.992;18.480;2022-12-18T13:28:07;28.70;99.90
37380;DHT22;23252;-33.992;18.480;2022-12-18T13:30:57;29.00;99.90
37380;DHT22;23252;-33.992;18.480;2022-12-18T13:39:09;28.80;99.90
37380;DHT22;23252;-33.992;18.480;2022-12-18T13:41:36;28.90;99.90
37380;DHT22;23252;-33.992;18.480;2022-12-18T13:46:52;29.10;99.90
37380;DHT22;23252;-33.992;18.480;2022-12-18T13:49:39;28.60;99.90
37380;DHT22;23252;-33.992;18.480;2022-12-18T13:52:18;28.50;99.90
37380;DHT22;23252;-33.992;18.480;2022-12-18T13:54:54;28.40;99.90
37380;DHT22;23252;-33.992;18.480;2022-12-18T13:57:34;28.30;99.90
37380;DHT22;23252;-33.992;18.480;2022-12-18T14:02:46;28.60;99.90
37380;DHT22;23252;-33.992;18.480;2022-12-18T14:05:29;28.60;99.90
37380;DHT22;23252;-33.992;18.480;2022-12-18T14:08:01;28.60;99.90
37380;DHT22;23252;-33.992;18.480;2022-12-18T14:10:28;29.20;99.90
37380;DHT22;23252;-33.992;18.480;2022-12-18T14:12:55;29.30;99.90
37380;DHT22;23252;-33.992;18.480;2022-12-18T14:15:38;29.00;99.90
37380;DHT22;23252;-33.992;18.480;2022-12-18T14:20:51;29.00;99.90
37380;DHT22;23252;-33.992;18.480;2022-12-18T14:23:45;28.10;99.90
37380;DHT22;23252;-33.992;18.480;2022-12-18T14:26:29;28.00;99.90
37380;DHT22;23252;-33.992;18.480;2022-12-18T14:28:58;28.00;99.90
37380;DHT22;23252;-33.992;18.480;2022-12-18T14:31:28;28.20;99.90
37380;DHT22;23252;-33.992;18.480;2022-12-18T14:33:56;27.90;99.90
37380;DHT22;23252;-33.992;18.480;2022-12-18T14:36:27;28.30;99.90
37380;DHT22;23252;-33.992;18.480;2022-12-18T14:38:57;28.60;99.90
37380;DHT22;23252;-33.992;18.480;2022-12-18T14:41:25;28.70;99.90
37380;DHT22;23252;-33.992;18.480;2022-12-18T14:43:53;27.70;99.90
37380;DHT22;23252;-33.992;18.480;2022-12-18T14:46:39;28.10;99.90
37380;DHT22;23252;-33.992;18.480;2022-12-18T14:52:04;27.80;99.90
37380;DHT22;23252;-33.992;18.480;2022-12-18T14:54:32;27.80;99.90
37380;DHT22;23252;-33.992;18.480;2022-12-18T14:57:04;27.40;99.90
37380;DHT22;23252;-33.992;18.480;2022-12-18T14:59:32;27.60;99.90
37380;DHT22;23252;-33.992;18.480;2022-12-18T15:04:36;27.70;99.90
37380;DHT22;23252;-33.992;18.480;2022-12-18T15:07:17;28.00;99.90
37380;DHT22;23252;-33.992;18.480;2022-12-18T15:12:34;28.10;99.90
37380;DHT22;23252;-33.992;18.480;2022-12-18T15:15:01;27.90;99.90
37380;DHT22;23252;-33.992;18.480;2022-12-18T15:17:36;26.90;99.90
37380;DHT22;23252;-33.992;18.480;2022-12-18T15:20:10;26.70;99.90
37380;DHT22;23252;-33.992;18.480;2022-12-18T15:22:40;26.80;99.90
37380;DHT22;23252;-33.992;18.480;2022-12-18T15:25:31;26.90;99.90
37380;DHT22;23252;-33.992;18.480;2022-12-18T15:27:58;27.00;99.90
37380;DHT22;23252;-33.992;18.480;2022-12-18T15:30:25;26.10;99.90
37380;DHT22;23252;-33.992;18.480;2022-12-18T15:32:52;26.10;99.90
37380;DHT22;23252;-33.992;18.480;2022-12-18T15:35:38;26.00;99.90
37380;DHT22;23252;-33.992;18.480;2022-12-18T15:38:06;25.80;99.90
37380;DHT22;23252;-33.992;18.480;2022-12-18T15:40:33;26.30;99.90
37380;DHT22;23252;-33.992;18.480;2022-12-18T15:43:00;26.60;99.90
37380;DHT22;23252;-33.992;18.480;2022-12-18T15:45:44;26.40;99.90
37380;DHT22;23252;-33.992;18.480;2022-12-18T15:48:23;26.90;99.90
37380;DHT22;23252;-33.992;18.480;2022-12-18T15:50:54;27.60;99.90
37380;DHT22;23252;-33.992;18.480;2022-12-18T15:53:23;27.60;99.90
37380;DHT22;23252;-33.992;18.480;2022-12-18T15:55:50;26.90;99.90
37380;DHT22;23252;-33.992;18.480;2022-12-18T15:58:35;26.30;99.90
37380;DHT22;23252;-33.992;18.480;2022-12-18T16:01:02;25.90;99.90
37380;DHT22;23252;-33.992;18.480;2022-12-18T16:03:28;25.50;99.90
37380;DHT22;23252;-33.992;18.480;2022-12-18T16:05:55;25.20;99.90
37380;DHT22;23252;-33.992;18.480;2022-12-18T16:08:21;25.20;99.90
37380;DHT22;23252;-33.992;18.480;2022-12-18T16:10:51;24.90;99.90
37380;DHT22;23252;-33.992;18.480;2022-12-18T16:13:20;24.70;99.90
37380;DHT22;23252;-33.992;18.480;2022-12-18T16:15:47;24.60;99.90
37380;DHT22;23252;-33.992;18.480;2022-12-18T16:18:14;24.80;99.90
37380;DHT22;23252;-33.992;18.480;2022-12-18T16:20:40;25.20;99.90
37380;DHT22;23252;-33.992;18.480;2022-12-18T16:23:10;25.00;99.90
37380;DHT22;23252;-33.992;18.480;2022-12-18T16:25:37;25.20;99.90
37380;DHT22;23252;-33.992;18.480;2022-12-18T16:28:03;25.40;99.90
37380;DHT22;23252;-33.992;18.480;2022-12-18T16:30:31;25.10;99.90
37380;DHT22;23252;-33.992;18.480;2022-12-18T16:32:58;24.70;99.90
37380;DHT22;23252;-33.992;18.480;2022-12-18T16:35:24;24.30;99.90
37380;DHT22;23252;-33.992;18.480;2022-12-18T16:37:51;23.80;99.90
37380;DHT22;23252;-33.992;18.480;2022-12-18T16:40:18;23.40;99.90
37380;DHT22;23252;-33.992;18.480;2022-12-18T16:42:45;23.40;99.90
37380;DHT22;23252;-33.992;18.480;2022-12-18T16:45:15;23.20;99.90
37380;DHT22;23252;-33.992;18.480;2022-12-18T16:47:42;23.20;99.90
37380;DHT22;23252;-33.992;18.480;2022-12-18T16:50:09;23.30;99.90
37380;DHT22;23252;-33.992;18.480;2022-12-18T16:52:36;23.10;99.90
37380;DHT22;23252;-33.992;18.480;2022-12-18T16:55:03;23.00;99.90
37380;DHT22;23252;-33.992;18.480;2022-12-18T16:57:30;22.90;99.90
37380;DHT22;23252;-33.992;18.480;2022-12-18T16:59:56;22.70;99.90
37380;DHT22;23252;-33.992;18.480;2022-12-18T17:02:24;22.70;99.90
37380;DHT22;23252;-33.992;18.480;2022-12-18T17:04:57;22.70;99.90
37380;DHT22;23252;-33.992;18.480;2022-12-18T17:07:24;22.70;99.90
37380;DHT22;23252;-33.992;18.480;2022-12-18T17:09:51;22.60;99.90
37380;DHT22;23252;-33.992;18.480;2022-12-18T17:12:19;22.40;99.90
37380;DHT22;23252;-33.992;18.480;2022-12-18T17:14:46;22.40;99.90
37380;DHT22;23252;-33.992;18.480;2022-12-18T17:17:12;22.30;99.90
37380;DHT22;23252;-33.992;18.480;2022-12-18T17:19:39;22.30;99.90
37380;DHT22;23252;-33.992;18.480;2022-12-18T17:22:08;22.20;99.90
37380;DHT22;23252;-33.992;18.480;2022-12-18T17:24:35;22.10;99.90
37380;DHT22;23252;-33.992;18.480;2022-12-18T17:27:03;22.00;99.90
37380;DHT22;23252;-33.992;18.480;2022-12-18T17:29:30;22.00;99.90
37380;DHT22;23252;-33.992;18.480;2022-12-18T17:31:56;22.00;99.90